Time;durP1;ratioP1;P1;durP2;ratioP2;P2;SDS_P1;SDS_P2;PMS_P1;PMS_P2;Temp;Humidity;BMP_temperature;BMP_pressure;BME280_temperature;BME280_humidity;BME280_pressure;Samples;Min_cycle;Max_cycle;Signal;HPM_P1;HPM_P2
2022/05/01 00:01:25;;;;;;;96.68;16.20;;;4.50;99.90;;;;;;5048464;28;20759;-81
2022/05/01 00:03:53;;;;;;;412.85;55.33;;;4.50;99.90;;;;;;5047034;28;20397;-80
2022/05/01 00:06:20;;;;;;;62.50;7.80;;;4.40;99.90;;;;;;5033703;28;20401;-81
2022/05/01 00:08:47;;;;;;;165.35;21.67;;;4.30;99.90;;;;;;5050106;28;20427;-81
2022/05/01 00:11:15;;;;;;;36.40;3.92;;;4.30;99.90;;;;;;5034530;28;20845;-81
2022/05/01 00:13:45;;;;;;;68.43;8.00;;;4.20;99.90;;;;;;5039121;28;20412;-81
2022/05/01 00:16:13;;;;;;;473.42;71.00;;;4.10;99.90;;;;;;5034212;28;20489;-80
2022/05/01 00:18:41;;;;;;;177.50;17.08;;;4.20;99.90;;;;;;5034087;28;20428;-80
2022/05/01 00:21:09;;;;;;;370.23;58.10;;;4.30;99.90;;;;;;5032742;28;20393;-81
2022/05/01 00:23:37;;;;;;;239.63;30.20;;;4.30;99.90;;;;;;5016510;28;20397;-81
2022/05/01 00:26:06;;;;;;;130.05;15.05;;;4.30;99.90;;;;;;5049103;28;20389;-81
2022/05/01 00:28:35;;;;;;;473.90;64.35;;;4.10;99.90;;;;;;5034089;28;20390;-80
2022/05/01 00:31:07;;;;;;;33.75;4.90;;;4.20;99.90;;;;;;5032658;28;20389;-80
2022/05/01 00:36:26;;;;;;;19.95;2.45;;;4.10;99.90;;;;;;5048674;28;20435;-80
2022/05/01 00:39:02;;;;;;;69.80;15.03;;;4.00;99.90;;;;;;5033987;28;20395;-80
2022/05/01 00:41:33;;;;;;;2.70;0.80;;;4.00;99.90;;;;;;5032484;28;20386;-81
2022/05/01 00:44:08;;;;;;;73.57;9.50;;;4.00;99.90;;;;;;5048948;28;20420;-81
2022/05/01 00:46:45;;;;;;;69.45;9.70;;;4.10;99.90;;;;;;5049167;28;20938;-81
2022/05/01 00:49:16;;;;;;;41.28;4.53;;;4.10;99.90;;;;;;5033760;28;20385;-81
2022/05/01 00:51:58;;;;;;;82.03;8.02;;;4.20;99.90;;;;;;5033683;28;20470;-80
2022/05/01 00:54:28;;;;;;;30.60;4.80;;;4.10;99.90;;;;;;5048681;28;20397;-80
2022/05/01 00:57:02;;;;;;;47.22;5.55;;;4.00;99.90;;;;;;5033405;28;20811;-81
2022/05/01 00:59:33;;;;;;;60.40;5.90;;;4.00;99.90;;;;;;5033438;28;20431;-81
2022/05/01 01:02:01;;;;;;;1.80;0.73;;;3.90;99.90;;;;;;5048616;28;20400;-81
2022/05/01 01:04:28;;;;;;;2.25;0.90;;;3.90;99.90;;;;;;5033510;28;20779;-81
2022/05/01 01:06:56;;;;;;;38.60;8.10;;;3.90;99.90;;;;;;5032062;28;20393;-81
2022/05/01 01:09:23;;;;;;;111.22;14.27;;;3.80;99.90;;;;;;5035986;28;20394;-80
2022/05/01 01:12:53;;;;;;;99.55;8.30;;;3.70;99.90;;;;;;5051434;28;20392;-80
2022/05/01 01:14:40;;;;;;;215.52;23.70;;;3.70;99.90;;;;;;5067598;28;20403;-81
2022/05/01 01:17:08;;;;;;;99.05;10.65;;;3.60;99.90;;;;;;5051610;28;20524;-80
2022/05/01 01:19:35;;;;;;;86.50;15.75;;;3.60;99.90;;;;;;5052262;28;20388;-79
2022/05/01 01:22:06;;;;;;;32.60;4.13;;;3.50;99.90;;;;;;5051951;28;20446;-80
2022/05/01 01:24:37;;;;;;;11.50;1.50;;;3.50;99.90;;;;;;5050996;28;20384;-82
2022/05/01 01:27:05;;;;;;;33.20;3.25;;;3.40;99.90;;;;;;5051410;28;20399;-81
2022/05/01 01:32:19;;;;;;;57.20;9.35;;;3.40;99.90;;;;;;5046240;28;20932;-80
2022/05/01 01:34:49;;;;;;;414.95;59.42;;;3.40;99.90;;;;;;5032145;28;20449;-81
2022/05/01 01:37:17;;;;;;;109.07;15.82;;;3.50;99.90;;;;;;5047316;28;20394;-81
2022/05/01 01:39:46;;;;;;;35.85;3.78;;;3.50;99.90;;;;;;5032761;28;20382;-81
2022/05/01 01:42:17;;;;;;;3.30;0.80;;;3.40;99.90;;;;;;5042682;28;20393;-81
2022/05/01 01:44:46;;;;;;;231.48;31.50;;;3.20;99.90;;;;;;5044128;28;20845;-81
2022/05/01 01:47:16;;;;;;;350.47;50.63;;;3.40;99.90;;;;;;5030717;28;20747;-79
2022/05/01 01:49:44;;;;;;;180.20;19.13;;;3.40;99.90;;;;;;5032467;28;20500;-80
2022/05/01 01:52:11;;;;;;;166.03;21.87;;;3.50;99.90;;;;;;5031145;28;20412;-81
2022/05/01 01:54:39;;;;;;;131.38;16.38;;;3.40;99.90;;;;;;5032295;28;20415;-81
2022/05/01 01:57:07;;;;;;;212.15;23.25;;;3.40;99.90;;;;;;5047846;28;20436;-80
2022/05/01 01:59:34;;;;;;;53.20;5.30;;;3.40;99.90;;;;;;5050624;28;20388;-80
2022/05/01 02:02:02;;;;;;;186.27;32.67;;;3.40;99.90;;;;;;5050059;28;20471;-80
2022/05/01 02:04:29;;;;;;;279.35;44.97;;;3.40;99.90;;;;;;5050915;28;20479;-80
2022/05/01 02:06:57;;;;;;;433.07;62.17;;;3.40;99.90;;;;;;5051466;28;20392;-80
2022/05/01 02:09:24;;;;;;;411.42;56.85;;;3.40;99.90;;;;;;5065965;28;20388;-81
2022/05/01 02:11:53;;;;;;;264.73;36.28;;;3.40;99.90;;;;;;5050473;28;20391;-80
2022/05/01 02:14:21;;;;;;;256.90;31.90;;;3.30;99.90;;;;;;5050570;28;20380;-80
2022/05/01 02:16:48;;;;;;;499.75;65.45;;;3.40;99.90;;;;;;5051064;28;20401;-80
2022/05/01 02:19:16;;;;;;;206.55;22.10;;;3.40;99.90;;;;;;5049524;28;20394;-79
2022/05/01 02:21:44;;;;;;;470.20;65.60;;;3.30;99.90;;;;;;5042147;28;20810;-79
2022/05/01 02:24:12;;;;;;;521.50;75.45;;;3.30;99.90;;;;;;5049679;28;20394;-80
2022/05/01 02:26:40;;;;;;;255.75;30.63;;;3.30;99.90;;;;;;5051018;28;20420;-80
2022/05/01 02:29:12;;;;;;;285.42;32.15;;;3.30;99.90;;;;;;5050061;28;20395;-80
2022/05/01 02:31:41;;;;;;;391.65;47.30;;;3.20;99.90;;;;;;5046917;28;20421;-80
2022/05/01 02:34:10;;;;;;;226.88;28.27;;;3.20;99.90;;;;;;5031608;28;20385;-80
2022/05/01 02:36:38;;;;;;;361.90;59.03;;;3.10;99.90;;;;;;5031819;28;20401;-80
2022/05/01 02:39:06;;;;;;;276.13;38.80;;;3.10;99.90;;;;;;5046731;28;20381;-80
2022/05/01 02:41:33;;;;;;;562.28;85.22;;;3.00;99.90;;;;;;5031421;28;20386;-81
2022/05/01 02:44:01;;;;;;;496.08;85.45;;;3.00;99.90;;;;;;5046609;28;20486;-80
2022/05/01 02:46:28;;;;;;;473.15;57.85;;;3.00;99.90;;;;;;5031333;28;20389;-80
2022/05/01 02:48:56;;;;;;;563.42;75.72;;;3.00;99.90;;;;;;5030234;28;20425;-81
2022/05/01 02:51:23;;;;;;;592.43;98.83;;;3.00;99.90;;;;;;5030381;28;20397;-81
2022/05/01 02:53:50;;;;;;;311.37;35.97;;;3.00;99.90;;;;;;5031412;28;20396;-80
2022/05/01 02:56:18;;;;;;;181.60;19.13;;;3.00;99.90;;;;;;5046440;28;20390;-81
2022/05/01 02:58:45;;;;;;;167.13;20.02;;;2.90;99.90;;;;;;5030084;28;20392;-80
2022/05/01 03:01:13;;;;;;;11.82;1.90;;;3.00;99.90;;;;;;5033379;28;20894;-79
2022/05/01 03:03:40;;;;;;;96.50;10.80;;;3.00;99.90;;;;;;5038613;28;20393;-80
2022/05/01 03:06:08;;;;;;;442.52;72.13;;;3.10;99.90;;;;;;5029907;28;20394;-80
2022/05/01 03:08:34;;;;;;;77.05;9.02;;;3.00;99.90;;;;;;5046651;28;20381;-80
2022/05/01 03:11:02;;;;;;;83.30;13.93;;;3.00;99.90;;;;;;5046465;28;20420;-81
2022/05/01 03:13:29;;;;;;;232.75;36.10;;;3.00;99.90;;;;;;5029824;28;20397;-80
2022/05/01 03:15:57;;;;;;;302.80;48.47;;;2.90;99.90;;;;;;5046352;28;20420;-80
2022/05/01 03:23:57;;;;;;;139.27;15.75;;;3.00;99.90;;;;;;5050886;28;20778;-81
2022/05/01 03:26:25;;;;;;;45.33;4.60;;;3.00;99.90;;;;;;5050305;28;20379;-81
2022/05/01 03:28:52;;;;;;;130.40;17.80;;;2.90;99.90;;;;;;5040238;28;20403;-80
2022/05/01 03:31:20;;;;;;;150.47;21.80;;;2.80;99.90;;;;;;5042348;28;20473;-81
2022/05/01 03:33:47;;;;;;;111.40;21.48;;;2.80;99.90;;;;;;5029646;28;20447;-80
2022/05/01 03:36:15;;;;;;;185.75;27.90;;;2.70;99.90;;;;;;5046260;28;20764;-80
2022/05/01 03:38:43;;;;;;;172.40;31.80;;;2.70;99.90;;;;;;5046075;28;20735;-80
2022/05/01 03:41:14;;;;;;;196.23;30.35;;;2.70;99.90;;;;;;5029347;28;20404;-81
2022/05/01 03:43:42;;;;;;;125.25;14.75;;;2.70;99.90;;;;;;5036298;28;20390;-81
2022/05/01 03:46:10;;;;;;;214.50;36.30;;;2.70;99.90;;;;;;5039877;28;20414;-81
2022/05/01 03:48:38;;;;;;;318.52;44.75;;;2.70;99.90;;;;;;5044002;28;20400;-80
2022/05/01 03:51:05;;;;;;;27.67;3.00;;;2.70;99.90;;;;;;5029615;28;20875;-81
2022/05/01 03:53:33;;;;;;;165.35;19.50;;;2.80;99.90;;;;;;5030740;28;20483;-80
2022/05/01 03:56:00;;;;;;;118.13;10.93;;;2.80;99.90;;;;;;5029687;28;20389;-81
2022/05/01 03:58:29;;;;;;;102.23;16.60;;;2.70;99.90;;;;;;5030778;28;20401;-81
2022/05/01 04:01:00;;;;;;;1.58;0.75;;;2.60;99.90;;;;;;5035151;28;20375;-80
2022/05/01 04:03:28;;;;;;;35.58;4.40;;;2.50;99.90;;;;;;5030766;28;20465;-81
2022/05/01 04:05:56;;;;;;;1.00;0.65;;;2.50;99.90;;;;;;5029509;28;20397;-81
2022/05/01 04:08:23;;;;;;;7.43;1.30;;;2.50;99.90;;;;;;5029580;28;20393;-81
2022/05/01 04:10:51;;;;;;;22.83;3.65;;;2.50;99.90;;;;;;5031608;28;20412;-81
2022/05/01 04:13:18;;;;;;;2.13;0.90;;;2.60;99.90;;;;;;5049638;28;20397;-80
2022/05/01 04:15:45;;;;;;;38.10;3.80;;;2.60;99.90;;;;;;5034260;28;20389;-81
2022/05/01 04:18:13;;;;;;;14.18;1.60;;;2.60;99.90;;;;;;5032829;28;20409;-80
2022/05/01 04:20:40;;;;;;;1.20;0.70;;;2.60;99.90;;;;;;5040510;28;21020;-82
2022/05/01 04:23:08;;;;;;;1.58;0.70;;;2.70;99.90;;;;;;5036904;28;20756;-80
2022/05/01 04:25:36;;;;;;;1.30;0.70;;;2.70;99.90;;;;;;5037788;28;21500;-81
2022/05/01 04:28:05;;;;;;;1.15;0.60;;;2.80;99.90;;;;;;5032751;28;20480;-80
2022/05/01 04:30:34;;;;;;;1.30;0.63;;;2.90;99.90;;;;;;5051374;28;20416;-81
2022/05/01 04:33:04;;;;;;;2.17;0.65;;;3.00;99.90;;;;;;5037685;28;20403;-80
2022/05/01 04:35:42;;;;;;;17.70;4.57;;;2.90;99.90;;;;;;5052608;28;20413;-80
2022/05/01 04:38:18;;;;;;;16.27;2.58;;;3.00;99.90;;;;;;5068871;28;20446;-82
2022/05/01 04:40:58;;;;;;;0.80;0.63;;;3.00;99.90;;;;;;5053109;28;20380;-81
2022/05/01 04:43:27;;;;;;;1.00;0.60;;;3.20;99.90;;;;;;5051657;28;20390;-80
2022/05/01 04:45:56;;;;;;;209.52;40.20;;;3.20;99.90;;;;;;5052379;28;20384;-81
2022/05/01 04:48:25;;;;;;;448.88;89.28;;;3.20;99.90;;;;;;5053475;28;20388;-82
2022/05/01 04:50:53;;;;;;;150.63;34.50;;;3.40;99.90;;;;;;5048757;28;20463;-80
2022/05/01 04:53:22;;;;;;;311.80;60.63;;;3.50;99.90;;;;;;5048700;28;20444;-81
2022/05/01 04:55:52;;;;;;;230.32;54.47;;;3.60;99.90;;;;;;5048677;28;20393;-82
2022/05/01 04:58:20;;;;;;;332.52;81.30;;;3.80;99.90;;;;;;5033346;28;20405;-82
2022/05/01 05:00:48;;;;;;;443.67;94.17;;;3.90;99.90;;;;;;5033212;28;20391;-82
2022/05/01 05:03:16;;;;;;;263.80;38.50;;;4.10;99.90;;;;;;5033205;28;20440;-81
2022/05/01 05:05:44;;;;;;;413.38;52.60;;;4.10;99.90;;;;;;5033478;28;20392;-82
2022/05/01 05:10:57;;;;;;;249.57;53.83;;;4.20;99.90;;;;;;5037226;28;20396;-82
2022/05/01 05:13:27;;;;;;;341.15;43.97;;;4.30;99.90;;;;;;5052839;28;20904;-81
2022/05/01 05:15:59;;;;;;;131.43;17.92;;;4.40;99.90;;;;;;5052818;28;20483;-82
2022/05/01 05:18:28;;;;;;;378.63;67.10;;;4.50;99.90;;;;;;5052399;28;20400;-80
2022/05/01 05:20:56;;;;;;;539.60;76.57;;;4.60;99.90;;;;;;5032964;28;20440;-81
2022/05/01 05:23:24;;;;;;;307.52;48.85;;;4.70;99.90;;;;;;5047888;28;20455;-81
2022/05/01 05:25:51;;;;;;;518.78;79.85;;;4.70;99.90;;;;;;5031620;28;20402;-81
2022/05/01 05:28:18;;;;;;;100.63;15.93;;;4.80;99.90;;;;;;5048203;28;20412;-82
2022/05/01 05:30:48;;;;;;;173.13;25.70;;;4.80;99.90;;;;;;5032829;28;20875;-80
2022/05/01 05:33:17;;;;;;;377.27;64.15;;;4.80;99.90;;;;;;5033171;28;20401;-81
2022/05/01 05:35:47;;;;;;;564.35;99.45;;;4.90;99.90;;;;;;5032768;28;20393;-80
2022/05/01 05:38:14;;;;;;;10.77;1.20;;;5.00;99.90;;;;;;5047760;28;20740;-81
2022/05/01 05:40:42;;;;;;;258.85;56.60;;;5.00;99.90;;;;;;5032725;28;20385;-82
2022/05/01 05:43:09;;;;;;;413.98;68.20;;;4.90;99.90;;;;;;5031409;28;20393;-81
2022/05/01 05:45:37;;;;;;;711.72;117.00;;;5.10;99.90;;;;;;5032374;28;20385;-81
2022/05/01 05:48:06;;;;;;;414.58;85.60;;;5.20;99.90;;;;;;5032580;28;20397;-83
2022/05/01 05:50:33;;;;;;;346.40;68.70;;;5.30;99.90;;;;;;5032507;28;20398;-82
2022/05/01 05:53:01;;;;;;;408.87;48.13;;;5.40;99.90;;;;;;5032504;28;20393;-81
2022/05/01 05:55:33;;;;;;;257.50;60.53;;;5.60;99.90;;;;;;5032349;28;20393;-82
2022/05/01 05:58:02;;;;;;;415.98;66.90;;;5.50;99.90;;;;;;5032381;28;20456;-82
2022/05/01 06:00:29;;;;;;;466.75;87.43;;;5.50;99.90;;;;;;5047382;28;20432;-82
2022/05/01 06:02:57;;;;;;;885.45;93.75;;;5.60;99.90;;;;;;5047309;28;20443;-82
2022/05/01 06:05:24;;;;;;;388.50;59.33;;;5.90;99.90;;;;;;5032120;28;20390;-81
2022/05/01 06:07:52;;;;;;;34.30;4.23;;;5.90;99.90;;;;;;5032146;28;20393;-81
2022/05/01 06:10:21;;;;;;;126.40;22.88;;;5.90;99.90;;;;;;5032130;28;20902;-82
2022/05/01 06:12:49;;;;;;;182.15;28.38;;;6.00;99.90;;;;;;5049540;28;20809;-82
2022/05/01 06:15:19;;;;;;;451.83;42.47;;;5.90;99.90;;;;;;5034312;28;20457;-81
2022/05/01 06:17:46;;;;;;;3.13;0.80;;;6.10;99.90;;;;;;5050466;28;20404;-82
2022/05/01 06:20:14;;;;;;;126.33;24.83;;;6.10;99.90;;;;;;5050528;28;20384;-83
2022/05/01 06:22:41;;;;;;;210.45;32.25;;;6.10;99.90;;;;;;5050267;28;20391;-83
2022/05/01 06:25:09;;;;;;;2.75;0.93;;;6.20;99.90;;;;;;5050408;28;20888;-83
2022/05/01 06:27:37;;;;;;;118.95;13.25;;;6.20;99.90;;;;;;5046990;28;20413;-82
2022/05/01 06:30:05;;;;;;;200.77;24.27;;;6.30;99.90;;;;;;5050527;28;20394;-83
2022/05/01 06:32:33;;;;;;;801.67;101.63;;;6.30;99.90;;;;;;5051164;28;20392;-82
2022/05/01 06:35:02;;;;;;;169.35;25.42;;;6.60;99.90;;;;;;5032998;28;20799;-82
2022/05/01 06:37:34;;;;;;;354.98;41.35;;;6.50;99.90;;;;;;5041568;28;20459;-83
2022/05/01 06:40:03;;;;;;;437.97;70.70;;;6.50;99.90;;;;;;5047048;28;20401;-83
2022/05/01 06:42:34;;;;;;;723.03;85.20;;;6.60;99.90;;;;;;5041005;28;20407;-82
2022/05/01 06:45:03;;;;;;;315.48;50.47;;;6.60;99.90;;;;;;5051304;28;20388;-83
2022/05/01 06:47:30;;;;;;;437.43;75.53;;;6.50;99.90;;;;;;5049552;28;20942;-83
2022/05/01 06:49:59;;;;;;;1174.68;120.40;;;6.70;99.90;;;;;;5045728;28;20496;-83
2022/05/01 06:52:29;;;;;;;942.65;96.22;;;6.80;99.90;;;;;;5037891;28;20401;-80
2022/05/01 06:54:56;;;;;;;88.30;21.13;;;6.70;99.90;;;;;;5030074;28;20389;-82
2022/05/01 06:57:24;;;;;;;171.00;44.20;;;7.00;99.90;;;;;;5032163;28;20407;-82
2022/05/01 06:59:53;;;;;;;503.02;58.92;;;6.90;99.90;;;;;;5031581;28;20860;-83
2022/05/01 07:02:21;;;;;;;15.63;1.92;;;6.90;99.90;;;;;;5046488;28;20433;-82
2022/05/01 07:04:49;;;;;;;1115.75;114.88;;;6.90;99.90;;;;;;5046414;28;20620;-82
2022/05/01 07:07:17;;;;;;;225.43;45.20;;;7.20;99.90;;;;;;5031158;28;20392;-83
2022/05/01 07:09:44;;;;;;;508.90;57.03;;;7.10;99.90;;;;;;5032350;28;20427;-82
2022/05/01 07:12:13;;;;;;;161.88;32.05;;;7.10;99.90;;;;;;5054544;28;20562;-82
2022/05/01 07:14:41;;;;;;;387.63;47.17;;;7.10;99.90;;;;;;5048144;28;20409;-83
2022/05/01 07:17:09;;;;;;;0.80;0.50;;;7.20;99.90;;;;;;5046466;28;20389;-84
2022/05/01 07:19:36;;;;;;;375.77;58.03;;;7.10;99.90;;;;;;5031018;28;20416;-83
2022/05/01 07:22:04;;;;;;;294.27;41.80;;;7.20;99.90;;;;;;5059197;28;20490;-82
2022/05/01 07:24:32;;;;;;;430.45;52.08;;;7.10;99.90;;;;;;5046356;28;21018;-82
2022/05/01 07:26:59;;;;;;;278.67;37.30;;;7.30;99.90;;;;;;5044818;28;20395;-83
2022/05/01 07:29:27;;;;;;;1400.47;123.13;;;7.30;99.90;;;;;;5046143;28;20435;-82
2022/05/01 07:31:55;;;;;;;475.08;65.38;;;7.40;99.90;;;;;;5030976;28;20397;-82
2022/05/01 07:34:22;;;;;;;923.45;96.78;;;7.50;99.90;;;;;;5033930;28;20449;-83
2022/05/01 07:36:50;;;;;;;613.77;92.30;;;7.60;99.90;;;;;;5031196;28;20413;-83
2022/05/01 07:39:17;;;;;;;226.63;32.25;;;7.50;99.90;;;;;;5045000;28;20407;-84
2022/05/01 07:41:45;;;;;;;1091.38;115.43;;;7.50;99.90;;;;;;5050037;28;20391;-82
2022/05/01 07:44:12;;;;;;;950.90;94.03;;;7.60;99.90;;;;;;5049087;28;20534;-83
2022/05/01 07:46:41;;;;;;;1374.30;124.20;;;7.60;99.90;;;;;;5040012;28;20401;-82
2022/05/01 07:49:09;;;;;;;837.08;77.90;;;7.70;99.90;;;;;;5048966;28;20923;-83
2022/05/01 07:51:37;;;;;;;426.35;49.50;;;7.70;99.90;;;;;;5035257;28;20402;-82
2022/05/01 07:54:06;;;;;;;214.32;23.42;;;7.80;99.90;;;;;;5033810;28;20868;-83
2022/05/01 07:56:34;;;;;;;1023.75;120.05;;;7.80;99.90;;;;;;5034941;28;20427;-82
2022/05/01 07:59:02;;;;;;;1587.72;163.05;;;7.90;99.90;;;;;;5034703;28;20488;-82
2022/05/01 08:01:30;;;;;;;477.17;68.70;;;8.00;99.90;;;;;;5051891;28;20418;-83
2022/05/01 08:06:44;;;;;;;646.45;102.05;;;7.90;99.90;;;;;;5052827;28;20388;-83
2022/05/01 08:09:12;;;;;;;513.47;78.00;;;8.00;99.90;;;;;;5051104;28;20492;-83
2022/05/01 08:11:39;;;;;;;147.40;21.40;;;8.10;99.90;;;;;;5049618;28;20397;-83
2022/05/01 08:14:09;;;;;;;280.65;38.75;;;8.20;99.90;;;;;;5042190;28;20881;-83
2022/05/01 08:16:36;;;;;;;95.85;16.65;;;8.00;99.90;;;;;;5032880;28;20447;-83
2022/05/01 08:21:50;;;;;;;649.05;62.47;;;8.00;99.90;;;;;;5032775;28;20827;-83
2022/05/01 08:24:18;;;;;;;235.07;33.90;;;8.10;99.00;;;;;;5058450;28;20399;-81
2022/05/01 08:26:47;;;;;;;297.40;35.20;;;8.10;99.20;;;;;;5049938;28;20434;-82
2022/05/01 08:29:17;;;;;;;124.80;22.40;;;8.10;99.80;;;;;;5016570;28;20917;-80
2022/05/01 08:31:51;;;;;;;253.95;43.30;;;8.00;99.90;;;;;;5032610;28;20404;-81
2022/05/01 08:34:19;;;;;;;149.10;27.02;;;8.10;99.90;;;;;;5032506;28;20451;-81
2022/05/01 08:36:47;;;;;;;905.63;106.40;;;8.10;99.90;;;;;;5033793;28;20438;-81
2022/05/01 08:39:15;;;;;;;187.63;42.42;;;8.30;99.80;;;;;;5043516;28;20405;-81
2022/05/01 08:41:42;;;;;;;169.52;30.50;;;8.20;99.10;;;;;;5048942;28;20906;-81
2022/05/01 08:44:14;;;;;;;182.98;28.15;;;8.10;99.70;;;;;;5033764;28;20439;-82
2022/05/01 08:47:23;;;;;;;375.52;45.85;;;8.10;98.90;;;;;;5034872;28;20471;-79
2022/05/01 08:49:58;;;;;;;174.07;28.13;;;8.20;99.40;;;;;;5046190;28;20392;-81
2022/05/01 08:52:27;;;;;;;460.92;65.40;;;8.30;99.60;;;;;;5039858;28;20384;-82
2022/05/01 08:54:57;;;;;;;282.42;40.90;;;8.30;99.00;;;;;;5032109;28;20501;-81
2022/05/01 08:57:27;;;;;;;1661.45;144.00;;;8.40;99.30;;;;;;5036150;28;20393;-80
2022/05/01 08:59:55;;;;;;;181.18;36.80;;;8.40;98.20;;;;;;5040025;28;20417;-80
2022/05/01 09:02:23;;;;;;;230.50;30.92;;;8.40;98.30;;;;;;5038721;28;20486;-81
2022/05/01 09:04:51;;;;;;;56.72;7.72;;;8.30;98.40;;;;;;5048297;28;21035;-81
2022/05/01 09:07:19;;;;;;;194.32;30.85;;;8.30;98.30;;;;;;5048513;28;20902;-80
2022/05/01 09:09:46;;;;;;;1424.68;102.28;;;8.40;99.00;;;;;;5039375;28;20400;-80
2022/05/01 09:15:00;;;;;;;603.35;79.07;;;8.40;98.80;;;;;;5033109;28;20866;-81
2022/05/01 09:17:27;;;;;;;7.70;1.40;;;8.60;99.50;;;;;;5052921;28;20926;-81
2022/05/01 09:20:07;;;;;;;365.10;56.95;;;8.50;99.10;;;;;;5036743;28;20420;-80
2022/05/01 09:22:52;;;;;;;63.67;9.50;;;8.60;99.90;;;;;;5035240;28;20382;-80
2022/05/01 09:25:25;;;;;;;111.10;12.93;;;8.50;99.90;;;;;;5032897;28;20439;-81
2022/05/01 09:27:57;;;;;;;761.03;76.43;;;8.50;99.00;;;;;;5050978;28;20392;-80
2022/05/01 09:30:38;;;;;;;106.00;18.15;;;8.50;98.00;;;;;;5036683;28;20739;-80
2022/05/01 09:33:17;;;;;;;701.28;72.75;;;8.50;99.90;;;;;;5038254;28;20380;-81
2022/05/01 09:35:45;;;;;;;274.33;50.95;;;8.60;97.30;;;;;;5041518;28;20958;-81
2022/05/01 09:38:22;;;;;;;1199.03;109.60;;;8.50;98.80;;;;;;5034506;28;20389;-81
2022/05/01 09:40:54;;;;;;;238.30;25.27;;;8.70;98.60;;;;;;5032938;28;20436;-81
2022/05/01 09:43:39;;;;;;;379.65;40.78;;;8.80;99.90;;;;;;5038548;28;20388;-80
2022/05/01 09:46:18;;;;;;;312.17;40.60;;;8.90;99.90;;;;;;5049322;28;20395;-80
2022/05/01 09:49:09;;;;;;;495.67;64.07;;;9.00;99.90;;;;;;5033548;28;20412;-81
2022/05/01 09:51:38;;;;;;;187.63;42.13;;;9.00;98.30;;;;;;5032179;28;20954;-80
2022/05/01 09:54:07;;;;;;;175.90;25.00;;;8.80;98.40;;;;;;5043132;28;20395;-80
2022/05/01 09:57:21;;;;;;;40.38;5.55;;;8.90;98.70;;;;;;5033087;28;20402;-80
2022/05/01 09:59:49;;;;;;;386.70;64.07;;;8.90;99.90;;;;;;5024766;28;20537;-80
2022/05/01 10:02:28;;;;;;;525.58;72.55;;;9.00;99.30;;;;;;5050486;28;20766;-79
2022/05/01 10:05:03;;;;;;;598.38;74.60;;;9.10;99.90;;;;;;5050775;28;20866;-81
2022/05/01 10:07:37;;;;;;;685.70;76.03;;;9.30;99.90;;;;;;5051008;28;21418;-81
2022/05/01 10:10:10;;;;;;;679.03;86.88;;;9.30;98.60;;;;;;5049826;28;20887;-80
2022/05/01 10:12:45;;;;;;;345.90;40.03;;;9.20;98.50;;;;;;5046726;28;20469;-80
2022/05/01 10:15:15;;;;;;;253.00;28.23;;;9.10;97.00;;;;;;5039768;28;20387;-80
2022/05/01 10:17:44;;;;;;;483.35;50.65;;;9.10;98.50;;;;;;5041452;28;20452;-80
2022/05/01 10:20:13;;;;;;;198.88;27.00;;;9.10;99.30;;;;;;5033181;28;20405;-79
2022/05/01 10:22:42;;;;;;;837.33;91.75;;;9.10;99.10;;;;;;5030303;28;20397;-79
2022/05/01 10:25:12;;;;;;;291.30;48.23;;;9.10;97.50;;;;;;5032149;28;20389;-80
2022/05/01 10:28:08;;;;;;;962.17;115.55;;;9.10;98.90;;;;;;5030410;28;20389;-80
2022/05/01 10:33:51;;;;;;;843.28;94.10;;;9.20;98.40;;;;;;5049860;28;20380;-80
2022/05/01 10:37:13;;;;;;;527.50;64.38;;;9.30;98.90;;;;;;5030277;28;20385;-79
2022/05/01 10:39:41;;;;;;;1097.80;98.18;;;9.40;99.90;;;;;;5029547;28;20515;-80
2022/05/01 10:42:10;;;;;;;58.45;5.07;;;9.50;97.20;;;;;;5031795;28;20385;-80
2022/05/01 10:44:40;;;;;;;661.00;63.13;;;9.50;99.90;;;;;;5030079;28;20400;-80
2022/05/01 10:47:12;;;;;;;125.30;13.30;;;9.60;99.60;;;;;;5042042;28;20447;-81
2022/05/01 10:49:42;;;;;;;226.18;31.08;;;9.70;99.60;;;;;;5040209;28;20391;-79
2022/05/01 10:52:19;;;;;;;118.70;16.45;;;9.80;99.90;;;;;;5037220;28;20392;-81
2022/05/01 10:54:54;;;;;;;46.20;4.70;;;10.10;99.60;;;;;;5032786;28;20405;-81
2022/05/01 10:57:23;;;;;;;1274.18;88.72;;;10.30;99.40;;;;;;5039760;28;20423;-80
2022/05/01 11:00:04;;;;;;;729.20;74.05;;;10.20;98.90;;;;;;5050972;28;20411;-80
2022/05/01 11:02:36;;;;;;;1216.18;65.38;;;10.10;98.60;;;;;;5050475;28;20393;-79
2022/05/01 11:05:07;;;;;;;555.83;62.00;;;10.10;98.60;;;;;;5050798;28;20388;-82
2022/05/01 11:07:37;;;;;;;251.50;32.92;;;9.90;99.90;;;;;;5049557;28;20395;-81
2022/05/01 11:10:07;;;;;;;324.10;46.35;;;9.90;99.90;;;;;;5051112;28;20445;-81
2022/05/01 11:12:36;;;;;;;182.73;19.88;;;9.90;99.90;;;;;;5065213;28;20396;-81
2022/05/01 11:15:08;;;;;;;578.13;62.25;;;10.00;99.20;;;;;;5050986;28;20471;-83
2022/05/01 11:17:36;;;;;;;236.77;48.70;;;10.00;98.50;;;;;;5051009;28;20422;-82
2022/05/01 11:20:10;;;;;;;146.27;27.90;;;10.00;99.10;;;;;;5052139;28;20399;-82
2022/05/01 11:22:38;;;;;;;28.88;3.30;;;10.00;99.80;;;;;;5054757;28;20437;-83
2022/05/01 11:25:10;;;;;;;130.70;13.90;;;10.20;99.90;;;;;;5053905;28;20384;-83
2022/05/01 11:27:52;;;;;;;522.47;63.58;;;10.20;99.50;;;;;;5053807;28;20807;-84
2022/05/01 11:30:30;;;;;;;185.35;23.77;;;10.30;99.90;;;;;;5053806;28;20398;-83
2022/05/01 11:33:11;;;;;;;604.63;57.80;;;10.20;99.90;;;;;;5054620;28;20391;-83
2022/05/01 11:35:58;;;;;;;93.43;12.03;;;10.30;98.60;;;;;;5052875;28;20395;-83
2022/05/01 11:38:38;;;;;;;204.00;53.50;;;10.40;99.70;;;;;;5053618;28;20861;-84
2022/05/01 11:41:06;;;;;;;748.55;78.07;;;10.30;99.90;;;;;;5047557;28;20452;-83
2022/05/01 11:43:35;;;;;;;245.25;33.55;;;10.40;98.40;;;;;;5050178;28;20717;-83
2022/05/01 11:46:04;;;;;;;276.40;33.78;;;10.20;98.40;;;;;;5049984;28;20386;-83
2022/05/01 11:48:32;;;;;;;332.83;40.03;;;10.10;99.90;;;;;;5033668;28;20498;-83
2022/05/01 11:51:00;;;;;;;5.80;0.90;;;10.00;98.80;;;;;;5049781;28;20385;-83
2022/05/01 11:53:32;;;;;;;33.47;3.90;;;10.00;99.90;;;;;;5035280;28;20428;-84
2022/05/01 12:04:36;;;;;;;133.07;15.07;;;10.10;99.90;;;;;;5050449;28;20419;-84
2022/05/01 12:07:12;;;;;;;140.80;23.50;;;10.30;99.90;;;;;;5018599;28;20799;-84
2022/05/01 12:09:40;;;;;;;145.25;18.02;;;10.50;99.90;;;;;;5035052;28;20988;-83
2022/05/01 12:12:11;;;;;;;156.27;19.70;;;10.70;99.90;;;;;;5050011;28;20752;-84
2022/05/01 12:14:40;;;;;;;246.83;34.67;;;10.80;99.90;;;;;;5032739;28;20433;-83
2022/05/01 12:17:15;;;;;;;305.25;34.40;;;10.70;99.40;;;;;;5034513;28;20447;-84
2022/05/01 12:19:51;;;;;;;422.77;44.40;;;10.60;99.30;;;;;;5048758;28;20406;-84
2022/05/01 12:22:21;;;;;;;243.20;23.50;;;10.50;99.70;;;;;;5034551;28;20736;-83
2022/05/01 12:24:49;;;;;;;669.40;71.28;;;10.60;99.90;;;;;;5033259;28;20402;-83
2022/05/01 12:27:20;;;;;;;219.18;21.85;;;10.60;99.10;;;;;;5038478;28;20940;-83
2022/05/01 12:29:52;;;;;;;622.65;69.80;;;10.40;97.90;;;;;;5052893;28;20384;-83
2022/05/01 12:32:20;;;;;;;44.72;5.97;;;10.40;98.30;;;;;;5051483;28;20431;-84
2022/05/01 12:34:48;;;;;;;1.13;0.68;;;10.40;99.00;;;;;;5050141;28;20408;-84
2022/05/01 12:37:22;;;;;;;100.57;13.10;;;10.40;99.90;;;;;;5035208;28;20444;-83
2022/05/01 12:39:58;;;;;;;39.47;4.20;;;10.50;99.90;;;;;;5045244;28;20438;-85
2022/05/01 12:45:18;;;;;;;555.55;76.97;;;10.60;99.90;;;;;;5034576;28;20385;-83
2022/05/01 12:47:47;;;;;;;36.15;2.38;;;10.60;98.90;;;;;;5044718;28;20391;-85
2022/05/01 12:50:21;;;;;;;424.02;44.50;;;10.60;99.90;;;;;;5052439;28;21030;-84
2022/05/01 12:52:59;;;;;;;293.63;53.15;;;10.70;99.90;;;;;;5065969;28;20822;-84
2022/05/01 12:55:35;;;;;;;90.97;17.20;;;10.60;98.40;;;;;;5033823;28;20397;-83
2022/05/01 12:58:06;;;;;;;294.42;51.58;;;10.50;99.90;;;;;;5033938;28;20400;-83
2022/05/01 13:00:39;;;;;;;771.75;83.05;;;10.70;99.90;;;;;;5033682;28;20413;-83
2022/05/01 13:03:37;;;;;;;76.25;11.10;;;10.90;98.40;;;;;;5033616;28;20396;-83
2022/05/01 13:06:09;;;;;;;389.88;51.80;;;10.80;99.60;;;;;;5032621;28;20428;-83
2022/05/01 13:08:40;;;;;;;207.57;26.55;;;10.70;97.20;;;;;;5032532;28;20783;-84
2022/05/01 13:11:26;;;;;;;252.93;41.37;;;10.60;98.30;;;;;;5032196;28;20401;-83
2022/05/01 13:14:25;;;;;;;156.93;26.77;;;10.50;98.80;;;;;;5033506;28;20393;-83
2022/05/01 13:16:53;;;;;;;73.37;14.90;;;10.50;98.30;;;;;;5033367;28;20736;-84
2022/05/01 13:19:20;;;;;;;65.63;10.75;;;10.40;98.70;;;;;;5019551;28;20405;-84
2022/05/01 13:21:53;;;;;;;1.70;0.70;;;10.40;98.10;;;;;;5033095;28;20397;-83
2022/05/01 13:24:26;;;;;;;255.90;42.30;;;10.30;98.70;;;;;;5032200;28;20844;-83